createdAt,value
2022-12-27T00:01:03.467Z,3.78
2022-12-27T00:03:31.556Z,3.80
2022-12-27T00:05:59.297Z,3.77
2022-12-27T00:08:26.877Z,3.80
2022-12-27T00:10:54.481Z,3.83
2022-12-27T00:13:23.771Z,3.81
2022-12-27T00:15:51.274Z,3.84
2022-12-27T00:18:18.798Z,3.74
2022-12-27T00:20:46.369Z,3.76
2022-12-27T00:23:13.908Z,3.76
2022-12-27T00:25:41.375Z,3.81
2022-12-27T00:28:08.860Z,3.91
2022-12-27T00:30:36.359Z,4.00
2022-12-27T00:33:03.906Z,3.97
2022-12-27T00:35:31.378Z,3.99
2022-12-27T00:37:58.956Z,3.99
2022-12-27T00:40:26.448Z,3.98
2022-12-27T00:42:53.927Z,3.98
2022-12-27T00:45:21.430Z,3.98
2022-12-27T00:47:48.907Z,3.98
2022-12-27T00:50:16.535Z,3.91
2022-12-27T00:52:44.096Z,3.96
2022-12-27T00:55:11.677Z,4.02
2022-12-27T00:57:39.194Z,4.08
2022-12-27T01:00:10.521Z,4.05
2022-12-27T01:02:38.838Z,4.13
2022-12-27T01:05:07.434Z,4.16
2022-12-27T01:07:35.138Z,4.11
2022-12-27T01:10:02.646Z,4.06
2022-12-27T01:12:30.456Z,4.05
2022-12-27T01:14:57.976Z,4.04
2022-12-27T01:17:25.502Z,4.02
2022-12-27T01:19:53.003Z,3.97
2022-12-27T01:22:20.516Z,3.91
2022-12-27T01:24:48.239Z,3.93
2022-12-27T01:27:15.770Z,4.05
2022-12-27T01:29:43.359Z,4.08
2022-12-27T01:32:11.261Z,4.11
2022-12-27T01:34:38.749Z,4.18
2022-12-27T01:37:06.257Z,4.17
2022-12-27T01:39:33.775Z,4.20
2022-12-27T01:42:18.819Z,4.24
2022-12-27T01:44:52.121Z,4.23
2022-12-27T01:47:22.991Z,4.22
2022-12-27T01:50:06.272Z,4.22
2022-12-27T01:52:44.610Z,4.24
2022-12-27T01:55:37.871Z,4.28
2022-12-27T01:58:29.860Z,4.29
2022-12-27T02:00:58.373Z,4.23
2022-12-27T02:03:30.191Z,4.31
2022-12-27T02:06:01.121Z,4.26
2022-12-27T02:08:38.069Z,4.15
2022-12-27T02:11:07.452Z,4.11
2022-12-27T02:13:39.227Z,4.05
2022-12-27T02:16:18.633Z,4.03
2022-12-27T02:18:47.838Z,4.06
2022-12-27T02:21:24.387Z,4.07
2022-12-27T02:24:07.478Z,4.04
2022-12-27T02:26:45.081Z,4.00
2022-12-27T02:29:42.608Z,3.96
2022-12-27T02:32:15.927Z,3.90
2022-12-27T02:35:08.241Z,3.93
2022-12-27T02:37:41.080Z,3.92
2022-12-27T02:40:28.643Z,3.97
2022-12-27T02:43:14.469Z,3.96
2022-12-27T02:46:08.994Z,4.04
2022-12-27T02:48:53.853Z,4.08
2022-12-27T02:51:44.897Z,4.13
2022-12-27T02:54:24.275Z,4.05
2022-12-27T02:57:31.316Z,4.05
2022-12-27T03:00:25.700Z,4.10
2022-12-27T03:03:42.640Z,4.00
2022-12-27T03:06:35.388Z,4.00
2022-12-27T03:09:48.298Z,4.04
2022-12-27T03:12:48.457Z,4.08
2022-12-27T03:15:49.125Z,4.05
2022-12-27T03:18:23.888Z,4.09
2022-12-27T03:21:09.242Z,4.10
2022-12-27T03:23:58.520Z,4.13
2022-12-27T03:26:29.455Z,4.10
2022-12-27T03:29:17.248Z,4.10
2022-12-27T03:32:07.763Z,4.16
2022-12-27T03:34:40.771Z,4.21
2022-12-27T03:37:41.262Z,4.16
2022-12-27T03:40:16.224Z,4.12
2022-12-27T03:43:09.976Z,4.11
2022-12-27T03:46:20.004Z,4.04
2022-12-27T03:49:06.490Z,4.02
2022-12-27T03:51:40.121Z,4.00
2022-12-27T03:54:17.265Z,3.95
2022-12-27T03:56:44.840Z,3.95
2022-12-27T03:59:13.594Z,3.91
2022-12-27T04:01:42.496Z,3.95
2022-12-27T04:04:10.142Z,3.99
2022-12-27T04:06:37.677Z,4.00
2022-12-27T04:09:22.876Z,4.03
2022-12-27T04:12:07.485Z,3.94
2022-12-27T04:14:52.283Z,3.91
2022-12-27T04:17:37.132Z,3.90
2022-12-27T04:20:22.505Z,3.91
2022-12-27T04:23:07.416Z,3.93
2022-12-27T04:25:52.274Z,3.90
2022-12-27T04:28:37.154Z,3.96
2022-12-27T04:31:21.958Z,3.98
2022-12-27T04:34:07.018Z,3.95
2022-12-27T04:36:34.533Z,4.01
2022-12-27T04:39:02.029Z,4.07
2022-12-27T04:41:47.443Z,4.14
2022-12-27T04:44:32.801Z,4.15
2022-12-27T04:47:18.119Z,4.10
2022-12-27T04:50:03.448Z,4.11
2022-12-27T04:52:53.766Z,4.09
2022-12-27T04:55:25.320Z,4.09
2022-12-27T04:57:53.989Z,4.14
2022-12-27T05:00:41.268Z,4.19
2022-12-27T05:03:13.364Z,4.11
2022-12-27T05:05:42.826Z,4.06
2022-12-27T05:08:28.859Z,3.93
2022-12-27T05:11:14.095Z,4.03
2022-12-27T05:13:59.532Z,4.03
2022-12-27T05:16:28.798Z,4.02
2022-12-27T05:18:57.940Z,3.89
2022-12-27T05:21:25.939Z,4.02
2022-12-27T05:24:16.289Z,3.99
2022-12-27T05:26:43.813Z,4.04
2022-12-27T05:29:11.418Z,4.02
2022-12-27T05:31:39.082Z,4.00
2022-12-27T05:34:07.425Z,4.07
2022-12-27T05:36:35.136Z,4.07
2022-12-27T05:39:02.816Z,3.98
2022-12-27T05:41:30.386Z,3.92
2022-12-27T05:44:04.847Z,3.90
2022-12-27T05:46:34.561Z,3.90
2022-12-27T05:49:02.083Z,3.87
2022-12-27T05:51:29.626Z,3.84
2022-12-27T05:53:57.351Z,3.90
2022-12-27T05:56:24.943Z,3.84
2022-12-27T05:58:55.501Z,3.86
2022-12-27T06:01:23.578Z,3.82
2022-12-27T06:03:51.123Z,3.85
2022-12-27T06:06:18.684Z,3.85
2022-12-27T06:08:46.398Z,3.77
2022-12-27T06:11:16.859Z,3.80
2022-12-27T06:13:49.374Z,3.79
2022-12-27T06:16:16.949Z,3.77
2022-12-27T06:18:44.459Z,3.74
2022-12-27T06:21:15.863Z,3.67
2022-12-27T06:23:45.665Z,3.63
2022-12-27T06:26:17.243Z,3.57
2022-12-27T06:28:44.845Z,3.54
2022-12-27T06:31:12.837Z,3.52
2022-12-27T06:33:40.539Z,3.57
2022-12-27T06:36:10.164Z,3.57
2022-12-27T06:38:38.533Z,3.64
2022-12-27T06:41:17.284Z,3.57
2022-12-27T06:43:46.009Z,3.42
2022-12-27T06:46:17.830Z,3.61
2022-12-27T06:48:47.637Z,3.63
2022-12-27T06:51:17.056Z,3.61
2022-12-27T06:53:44.609Z,3.61
2022-12-27T06:56:16.637Z,3.69
2022-12-27T06:58:44.318Z,3.67
2022-12-27T07:01:32.200Z,3.67
2022-12-27T07:04:01.602Z,3.66
2022-12-27T07:06:31.347Z,3.58
2022-12-27T07:09:01.226Z,3.57
2022-12-27T07:11:29.092Z,3.60
2022-12-27T07:13:57.013Z,3.61
2022-12-27T07:16:26.557Z,3.63
2022-12-27T07:18:56.299Z,3.61
2022-12-27T07:21:25.855Z,3.60
2022-12-27T07:23:53.518Z,3.58
2022-12-27T07:26:31.143Z,3.61
2022-12-27T07:29:01.303Z,3.60
2022-12-27T07:31:31.590Z,3.55
2022-12-27T07:34:01.807Z,3.58
2022-12-27T07:36:33.950Z,3.57
2022-12-27T07:39:01.613Z,3.53
2022-12-27T07:41:29.279Z,3.54
2022-12-27T07:43:56.831Z,3.57
2022-12-27T07:46:26.978Z,3.54
2022-12-27T07:48:56.461Z,3.56
2022-12-27T07:51:24.942Z,3.59
2022-12-27T07:53:53.451Z,3.51
2022-12-27T07:56:27.012Z,3.51
2022-12-27T07:58:56.985Z,3.52
2022-12-27T08:01:26.433Z,3.52
2022-12-27T08:03:54.226Z,3.52
2022-12-27T08:06:34.238Z,3.56
2022-12-27T08:09:06.381Z,3.53
2022-12-27T08:11:34.200Z,3.59
2022-12-27T08:14:01.882Z,3.58
2022-12-27T08:16:29.508Z,3.56
2022-12-27T08:18:57.262Z,3.71
2022-12-27T08:21:24.798Z,3.76
2022-12-27T08:23:52.586Z,3.72
2022-12-27T08:26:20.173Z,3.79
2022-12-27T08:28:47.930Z,3.87
2022-12-27T08:31:15.679Z,4.05
2022-12-27T08:33:43.355Z,4.14
2022-12-27T08:36:54.231Z,4.17
2022-12-27T08:39:01.192Z,4.18
2022-12-27T08:41:28.939Z,4.15
2022-12-27T08:43:56.565Z,4.16
2022-12-27T08:46:24.220Z,3.95
2022-12-27T08:48:52.624Z,4.00
2022-12-27T08:51:32.771Z,4.03
2022-12-27T08:54:06.296Z,4.02
2022-12-27T08:56:34.048Z,4.09
2022-12-27T08:59:01.697Z,3.98
2022-12-27T09:01:29.573Z,3.94
2022-12-27T09:03:57.214Z,3.93
2022-12-27T09:06:27.742Z,4.00
2022-12-27T09:08:56.461Z,3.98
2022-12-27T09:11:28.199Z,3.98
2022-12-27T09:13:56.573Z,4.07
2022-12-27T09:16:27.569Z,4.06
2022-12-27T09:18:56.927Z,4.10
2022-12-27T09:21:26.905Z,4.18
2022-12-27T09:23:55.573Z,4.28
2022-12-27T09:26:28.364Z,4.09
2022-12-27T09:28:57.301Z,4.17
2022-12-27T09:31:26.406Z,4.29
2022-12-27T09:33:54.538Z,4.28
2022-12-27T09:36:24.762Z,4.36
2022-12-27T09:38:54.488Z,4.37
2022-12-27T09:42:34.187Z,4.39
2022-12-27T09:44:48.052Z,4.36
2022-12-27T09:47:22.844Z,4.29
2022-12-27T09:49:56.531Z,4.10
2022-12-27T09:52:30.788Z,4.09
2022-12-27T09:55:13.380Z,4.06
2022-12-27T09:57:41.818Z,4.13
2022-12-27T10:00:34.097Z,4.18
2022-12-27T10:03:06.878Z,4.28
2022-12-27T10:05:37.543Z,4.54
2022-12-27T10:08:32.033Z,4.67
2022-12-27T10:11:08.494Z,4.78
2022-12-27T10:13:58.694Z,4.86
2022-12-27T10:16:41.391Z,4.86
2022-12-27T10:19:27.544Z,4.65
2022-12-27T10:22:22.371Z,4.63
2022-12-27T10:24:56.823Z,4.50
2022-12-27T10:27:27.197Z,4.53
2022-12-27T10:29:59.652Z,4.54
2022-12-27T10:32:27.500Z,4.64
2022-12-27T10:35:01.783Z,4.66
2022-12-27T10:37:30.552Z,4.82
2022-12-27T10:40:10.702Z,4.81
2022-12-27T10:42:42.017Z,4.91
2022-12-27T10:45:42.356Z,5.08
2022-12-27T10:48:47.338Z,5.02
2022-12-27T10:51:17.918Z,5.11
2022-12-27T10:53:48.298Z,5.29
2022-12-27T10:56:30.842Z,5.43
2022-12-27T10:59:17.643Z,5.47
2022-12-27T11:01:47.048Z,5.63
2022-12-27T11:04:20.271Z,5.80
2022-12-27T11:07:11.740Z,5.77
2022-12-27T11:09:51.184Z,5.99
2022-12-27T11:12:24.773Z,6.18
2022-12-27T11:15:15.741Z,6.38
2022-12-27T11:17:45.029Z,6.42
2022-12-27T11:20:12.653Z,6.43
2022-12-27T11:23:05.095Z,6.40
2022-12-27T11:25:34.558Z,6.39
2022-12-27T11:28:38.965Z,6.39
2022-12-27T11:31:11.623Z,6.40
2022-12-27T11:33:48.424Z,6.29
2022-12-27T11:36:36.656Z,6.34
2022-12-27T11:39:05.665Z,6.41
2022-12-27T11:41:38.244Z,6.41
2022-12-27T11:44:06.012Z,6.55
2022-12-27T11:46:41.974Z,6.62
2022-12-27T11:49:20.987Z,6.61
2022-12-27T11:52:13.265Z,6.53
2022-12-27T11:54:59.070Z,6.64
2022-12-27T11:57:49.564Z,6.78
2022-12-27T12:00:21.813Z,6.71
2022-12-27T12:03:33.432Z,6.65
2022-12-27T12:06:34.584Z,6.77
2022-12-27T12:09:31.217Z,6.79
2022-12-27T12:12:05.757Z,6.85
2022-12-27T12:14:47.202Z,6.69
2022-12-27T12:17:36.174Z,6.70
2022-12-27T12:20:18.399Z,6.74
2022-12-27T12:23:01.107Z,6.82
2022-12-27T12:25:46.999Z,6.86
2022-12-27T12:28:56.240Z,6.91
2022-12-27T12:31:30.027Z,6.88
2022-12-27T12:34:03.575Z,6.98
2022-12-27T12:37:02.301Z,7.02
2022-12-27T12:39:45.256Z,6.90
2022-12-27T12:42:24.134Z,6.83
2022-12-27T12:45:17.915Z,6.85
2022-12-27T12:48:14.227Z,6.85
2022-12-27T12:51:12.022Z,6.82
2022-12-27T12:54:05.447Z,6.79
2022-12-27T12:56:45.190Z,6.62
2022-12-27T12:59:19.068Z,6.69
2022-12-27T13:01:55.695Z,6.65
2022-12-27T13:04:35.733Z,6.65
2022-12-27T13:07:30.329Z,6.73
2022-12-27T13:10:28.584Z,6.75
2022-12-27T13:13:22.494Z,6.82
2022-12-27T13:16:27.512Z,6.81
2022-12-27T13:19:37.881Z,6.80
2022-12-27T13:22:42.064Z,6.88
2022-12-27T13:25:28.116Z,7.03
2022-12-27T13:28:30.506Z,6.97
2022-12-27T13:31:31.999Z,6.90
2022-12-27T13:34:25.848Z,7.06
2022-12-27T13:37:12.642Z,7.06
2022-12-27T13:40:02.145Z,7.12
2022-12-27T13:43:02.348Z,7.02
2022-12-27T13:45:56.258Z,6.94
2022-12-27T13:49:05.484Z,6.96
2022-12-27T13:51:39.072Z,6.92
2022-12-27T13:54:13.510Z,6.89
2022-12-27T13:57:06.143Z,6.92
2022-12-27T14:00:00.173Z,6.83
2022-12-27T14:02:53.950Z,6.79
2022-12-27T14:06:08.975Z,6.79
2022-12-27T14:09:19.125Z,6.88
2022-12-27T14:12:22.429Z,6.63
2022-12-27T14:14:51.622Z,6.56
2022-12-27T14:17:44.509Z,6.67
2022-12-27T14:20:46.242Z,6.63
2022-12-27T14:23:35.307Z,6.69
2022-12-27T14:26:27.239Z,6.65
2022-12-27T14:29:30.132Z,6.58
2022-12-27T14:32:40.825Z,6.56
2022-12-27T14:35:27.373Z,6.53
2022-12-27T14:38:19.645Z,6.53
2022-12-27T14:40:50.685Z,6.54
2022-12-27T14:43:21.435Z,6.46
2022-12-27T14:46:26.480Z,6.55
2022-12-27T14:49:13.206Z,6.54
2022-12-27T14:52:14.845Z,6.51
2022-12-27T14:55:21.849Z,6.41
2022-12-27T14:58:01.263Z,6.45
2022-12-27T15:00:36.314Z,6.48
2022-12-27T15:03:20.219Z,6.42
2022-12-27T15:06:04.832Z,6.37
2022-12-27T15:08:49.978Z,6.35
2022-12-27T15:11:35.456Z,6.26
2022-12-27T15:14:25.433Z,6.27
2022-12-27T15:17:18.325Z,6.16
2022-12-27T15:19:57.242Z,6.15
2022-12-27T15:22:48.228Z,6.09
2022-12-27T15:25:51.524Z,6.05
2022-12-27T15:28:32.265Z,6.10
2022-12-27T15:31:11.568Z,6.04
2022-12-27T15:33:52.517Z,5.99
2022-12-27T15:36:22.320Z,5.98
2022-12-27T15:38:54.458Z,6.00
2022-12-27T15:41:25.145Z,6.00
2022-12-27T15:44:10.881Z,6.00
2022-12-27T15:46:48.341Z,5.95
2022-12-27T15:49:34.898Z,6.00
2022-12-27T15:52:35.646Z,6.03
2022-12-27T15:55:30.984Z,6.14
2022-12-27T15:58:19.496Z,6.11
2022-12-27T16:01:07.740Z,6.15
2022-12-27T16:03:42.653Z,6.05
2022-12-27T16:06:30.719Z,5.99
2022-12-27T16:09:25.767Z,6.07
2022-12-27T16:12:25.517Z,6.05
2022-12-27T16:15:31.662Z,6.12
2022-12-27T16:17:59.247Z,6.02
2022-12-27T16:20:26.974Z,5.98
2022-12-27T16:23:07.039Z,6.01
2022-12-27T16:25:38.239Z,6.03
2022-12-27T16:28:10.186Z,6.04
2022-12-27T16:30:45.757Z,6.11
2022-12-27T16:33:27.176Z,6.05
2022-12-27T16:36:13.004Z,6.05
2022-12-27T16:38:45.980Z,6.06
2022-12-27T16:41:26.050Z,6.02
2022-12-27T16:44:06.965Z,5.99
2022-12-27T16:46:49.877Z,6.06
2022-12-27T16:49:54.226Z,6.06
2022-12-27T16:53:03.555Z,6.09
2022-12-27T16:55:49.338Z,6.15
2022-12-27T16:58:31.994Z,6.06
2022-12-27T17:01:01.808Z,5.92
2022-12-27T17:03:30.831Z,5.90
2022-12-27T17:09:10.744Z,6.00
2022-12-27T17:12:03.324Z,5.87
2022-12-27T17:14:36.220Z,5.99
2022-12-27T17:17:09.929Z,5.99
2022-12-27T17:19:45.351Z,5.96
2022-12-27T17:22:17.779Z,5.86
2022-12-27T17:24:46.823Z,5.85
2022-12-27T17:27:47.745Z,5.85
2022-12-27T17:30:54.693Z,5.80
2022-12-27T17:33:37.218Z,5.86
2022-12-27T17:36:04.616Z,5.88
2022-12-27T17:38:53.719Z,5.93
2022-12-27T17:41:54.224Z,5.89
2022-12-27T17:44:49.598Z,5.90
2022-12-27T17:47:44.752Z,5.98
2022-12-27T17:50:20.147Z,5.97
2022-12-27T17:53:41.678Z,5.89
2022-12-27T17:56:29.407Z,5.83
2022-12-27T17:59:15.491Z,5.85
2022-12-27T18:01:50.927Z,5.85
2022-12-27T18:04:33.238Z,5.82
2022-12-27T18:07:04.136Z,5.89
2022-12-27T18:09:40.676Z,5.92
2022-12-27T18:12:27.019Z,5.85
2022-12-27T18:15:14.877Z,5.86
2022-12-27T18:17:52.925Z,5.82
2022-12-27T18:20:29.636Z,5.90
2022-12-27T18:23:03.081Z,5.88
2022-12-27T18:25:33.390Z,5.85
2022-12-27T18:28:06.887Z,5.89
2022-12-27T18:30:43.951Z,5.96
2022-12-27T18:33:14.939Z,5.97
2022-12-27T18:35:47.150Z,5.95
2022-12-27T18:38:26.840Z,5.95
2022-12-27T18:41:17.943Z,5.84
2022-12-27T18:43:51.292Z,5.80
2022-12-27T18:46:33.513Z,5.80
2022-12-27T18:49:02.039Z,5.75
2022-12-27T18:51:35.953Z,5.75
2022-12-27T18:54:21.210Z,5.76
2022-12-27T18:56:53.228Z,5.84
2022-12-27T18:59:27.979Z,5.81
2022-12-27T19:01:58.703Z,5.82
2022-12-27T19:04:29.604Z,5.82
2022-12-27T19:06:58.970Z,5.73
2022-12-27T19:09:32.456Z,5.63
2022-12-27T19:12:02.894Z,5.60
2022-12-27T19:14:42.730Z,5.60
2022-12-27T19:17:24.014Z,5.59
2022-12-27T19:19:56.152Z,5.50
2022-12-27T19:22:51.724Z,5.48
2022-12-27T19:25:23.783Z,5.38
2022-12-27T19:28:17.614Z,5.29
2022-12-27T19:30:51.276Z,5.30
2022-12-27T19:33:33.490Z,5.21
2022-12-27T19:36:02.963Z,5.25
2022-12-27T19:38:34.546Z,5.26
2022-12-27T19:41:04.319Z,5.20
2022-12-27T19:43:45.454Z,5.20
2022-12-27T19:46:14.767Z,5.18
2022-12-27T19:48:42.396Z,5.21
2022-12-27T19:51:16.380Z,5.22
2022-12-27T19:53:46.494Z,5.23
2022-12-27T19:56:14.118Z,5.26
2022-12-27T19:58:41.694Z,5.25
2022-12-27T20:01:09.401Z,5.29
2022-12-27T20:03:37.186Z,5.26
2022-12-27T20:06:13.953Z,5.29
2022-12-27T20:08:50.178Z,5.27
2022-12-27T20:11:21.475Z,5.28
2022-12-27T20:13:49.714Z,5.32
2022-12-27T20:16:20.099Z,5.35
2022-12-27T20:18:48.661Z,5.34
2022-12-27T20:21:19.371Z,5.35
2022-12-27T20:23:48.272Z,5.38
2022-12-27T20:26:21.269Z,5.39
2022-12-27T20:28:50.040Z,5.43
2022-12-27T20:31:20.445Z,5.46
2022-12-27T20:33:56.048Z,5.47
2022-12-27T20:36:25.214Z,5.51
2022-12-27T20:38:53.286Z,5.49
2022-12-27T20:41:23.082Z,5.48
2022-12-27T20:43:56.510Z,5.50
2022-12-27T20:46:24.886Z,5.46
2022-12-27T20:48:53.748Z,5.47
2022-12-27T20:51:25.315Z,5.55
2022-12-27T20:53:57.489Z,5.53
2022-12-27T20:56:25.584Z,5.54
2022-12-27T20:58:53.801Z,5.45
2022-12-27T21:01:24.120Z,5.56
2022-12-27T21:03:52.014Z,5.54
2022-12-27T21:06:22.266Z,5.57
2022-12-27T21:08:56.572Z,5.56
2022-12-27T21:11:31.570Z,5.55
2022-12-27T21:14:01.251Z,5.54
2022-12-27T21:16:31.058Z,5.47
2022-12-27T21:19:02.719Z,5.53
2022-12-27T21:21:30.250Z,5.51
2022-12-27T21:23:58.934Z,5.54
2022-12-27T21:26:33.664Z,5.56
2022-12-27T21:29:03.860Z,5.55
2022-12-27T21:31:31.948Z,5.59
2022-12-27T21:34:00.457Z,5.65
2022-12-27T21:36:31.270Z,5.60
2022-12-27T21:38:59.414Z,5.64
2022-12-27T21:41:31.748Z,5.52
2022-12-27T21:43:59.865Z,5.53
2022-12-27T21:46:32.940Z,5.55
2022-12-27T21:49:03.025Z,5.47
2022-12-27T21:51:32.423Z,5.49
2022-12-27T21:54:00.185Z,5.55
2022-12-27T21:56:27.809Z,5.60
2022-12-27T21:58:56.397Z,5.58
2022-12-27T22:01:29.615Z,5.56
2022-12-27T22:03:58.820Z,5.63
2022-12-27T22:06:32.196Z,5.63
2022-12-27T22:09:02.231Z,5.64
2022-12-27T22:11:31.636Z,5.66
2022-12-27T22:13:59.660Z,5.67
2022-12-27T22:16:33.627Z,5.64
2022-12-27T22:19:01.632Z,5.53
2022-12-27T22:21:32.149Z,5.49
2022-12-27T22:24:02.186Z,5.52
2022-12-27T22:26:34.341Z,5.40
2022-12-27T22:29:03.659Z,5.40
2022-12-27T22:31:36.149Z,5.36
2022-12-27T22:34:04.979Z,5.38
2022-12-27T22:36:32.572Z,5.23
2022-12-27T22:39:01.496Z,5.24
2022-12-27T22:41:37.067Z,5.22
2022-12-27T22:44:10.999Z,5.24
2022-12-27T22:47:15.279Z,5.18
2022-12-27T22:49:27.437Z,5.18
2022-12-27T22:51:55.013Z,5.16
2022-12-27T22:55:03.277Z,5.15
2022-12-27T22:57:10.115Z,5.13
2022-12-27T22:59:37.724Z,5.15
2022-12-27T23:02:05.733Z,5.14
2022-12-27T23:04:33.568Z,5.14
2022-12-27T23:07:02.141Z,5.12
2022-12-27T23:09:30.240Z,5.15
2022-12-27T23:11:57.879Z,5.23
2022-12-27T23:14:25.398Z,5.16
2022-12-27T23:16:53.030Z,5.30
2022-12-27T23:19:24.234Z,5.34
2022-12-27T23:21:51.798Z,5.30
2022-12-27T23:24:19.344Z,5.30
2022-12-27T23:26:47.065Z,5.21
2022-12-27T23:29:15.708Z,5.15
2022-12-27T23:31:55.592Z,5.15
2022-12-27T23:34:29.505Z,5.18
2022-12-27T23:37:01.069Z,5.11
2022-12-27T23:39:29.190Z,5.21
2022-12-27T23:41:56.771Z,5.23
2022-12-27T23:44:33.980Z,5.28
2022-12-27T23:47:04.413Z,5.26
2022-12-27T23:49:32.118Z,5.25
2022-12-27T23:51:59.678Z,5.22
2022-12-27T23:54:27.228Z,5.20
2022-12-27T23:56:54.837Z,5.14
2022-12-27T23:59:22.446Z,5.22
